Portada
METAR-TAF:

METAR-TAF

Aeroports :

Manizales, Colòmbia

latitud: 05-01-48N, longitud: 075-27-50W, altitud: 2063 m

Observació

L'informe es va fer fa 9 hores i 59 minuts, a les 23:00 UTC
Vent calma
Temperatura 18°C
Humitat 83%
Pressió 1025 hPa
Visibilitat 10 km o més
Núvols disperses a una alçada de 8000 ft

METAR: SKMZ 222300Z 00000KT 9999 SCT080 18/15 A3026

Hora: 03:59 (08:59 UTC)


TAF: manca

Observacions i pronòstics meteorològics de més de 4000 aeroports (METAR i TAF).

Les estacions disponibles són els punts grocs i vermells al mapa.

Posi el ratolí al punt desitjat per veure el nom de l'estació.

Feu clic per veure les observacions i els pronòstics meteorològics.

Per canviar el mapa: feu clic els botons verds amb una creu de color negre per apropar; al botó verd amb un guió per allunyar la imatge; o en les fletxes verdes per a mapes adjacents.


METAR-TAF: